MET'MAP v2.0
soon released !

Expected late october,
this new version will be
more efficient, smarter,
and hosted on a brand new
server x3 powerfull...
...and still free !


Not compatible ?
Try the mobile version !

LOG IN : | Subscribe | Disclaimer | Who is Orbifly ? |
ICAO code :

TAF - DABT Batna - 14 Jul 2020 08:12 UTC - Data Source NOAA   


- Airport Elevation : 2697 ft
- IATA code : BLJ
- No reported NOTAMs.


DABT - Batna

Latest METAR recorded : 2015/08/11 08:00 DABT 110800Z 32006KT 9999 FEW026 23/16 Q1018
TAF TAF DABT
Valid from the 14 at 06:00 until the 15 at 06:00 UTC


140500Z 1406/1506 05008KT 9999 SCT026 SCT100
BECMG 1411/1414 34014KT
TEMPO 1412/1422 FEW026CB
PROB30
TEMPO 1413/1419 02015G25KT 4000 -TSRA
BECMG 1418/1420 VRB02KT

Source NOAA


MET'MAP, your aeronautical weather chart ! - Copyright ORBIFLY December 2007

Programming & Development : Alexandra Zaïnal
Co-Developer : Marc-Olivier Méhu
Technical & hardware support : Manuel Goepfert
Concept & Financing : Baudouin d'Aumeries